This is the latest recevied weather packets stored in our database for station/object WM1X. If no packets are shown the sender has not sent any weather packets the latest 10 day(s).
| Time | Temp. | Humidity | Pressure | Rain* | Wind** | Luminosity | Snow |
|---|---|---|---|---|---|---|---|
| 1777926904 | 18.89° C | 35% | 1007.4 hPa | 0 mm | - | - | - |
| 1777922104 | 18.89° C | 34% | 1007.6 hPa | 0 mm | - | - | - |
| 1777919704 | 18.89° C | 33% | 1007.8 hPa | 0 mm | - | - | - |
| 1777918504 | 18.89° C | 34% | 1007.9 hPa | 0 mm | - | - | - |
| 1777902304 | 12.78° C | 48% | 1010 hPa | 0 mm | - | - | - |
| 1777900504 | 12.22° C | 50% | 1010.2 hPa | 0 mm | - | - | - |
| 1777898703 | 11.11° C | 52% | 1010.7 hPa | 0 mm | - | - | - |
| 1777898104 | 10.56° C | 53% | 1010.7 hPa | 0 mm | - | - | - |
| 1777896304 | 9.44° C | 56% | 1010.9 hPa | 0 mm | - | - | - |
| 1777877103 | 6.67° C | 59% | 1010.4 hPa | 0 mm | - | - | - |
| 1777869904 | 5° C | 59% | 1010.7 hPa | 0 mm | - | - | - |
| 1777863904 | 1.67° C | 81% | 1010.3 hPa | 0 mm | - | - | - |
| 1777863304 | 1.67° C | 82% | 1010.3 hPa | 0 mm | - | - | - |
| 1777862704 | 1.67° C | 81% | 1010.3 hPa | 0 mm | - | - | - |
| 1777860303 | 2.78° C | 78% | 1010.2 hPa | 0 mm | - | - | - |
| 1777859704 | 2.78° C | 76% | 1010.2 hPa | 0 mm | - | - | - |
| 1777858504 | 3.89° C | 71% | 1010 hPa | 0 mm | - | - | - |
| 1777857904 | 4.44° C | 69% | 1010 hPa | 0 mm | - | - | - |
| 1777853103 | 7.78° C | 51% | 1008.9 hPa | 0 mm | - | - | - |
| 1777850704 | 8.33° C | 46% | 1008.6 hPa | 0 mm | - | - | - |
| 1777850104 | 8.89° C | 46% | 1008.5 hPa | 0 mm | - | - | - |
| 1777846503 | 8.33° C | 47% | 1008.2 hPa | 0 mm | - | - | - |
| 1777843504 | 8.89° C | 43% | 1007.9 hPa | 0 mm | - | - | - |
| 1777839904 | 8.89° C | 46% | 1007.4 hPa | 0 mm | - | - | - |
| 1777836303 | 9.44° C | 44% | 1007.1 hPa | 0 mm | - | - | - |
* Rain latest hour (hover to see other rain measurements)
** Current wind speed in m/s (hover to see current wind gust speed)